createdAt,value
2023-02-26T00:00:54.543Z,95791.94
2023-02-26T00:01:58.393Z,95783.53
2023-02-26T00:03:00.076Z,95778.91
2023-02-26T00:04:04.676Z,95770.84
2023-02-26T00:05:07.066Z,95770.84
2023-02-26T00:06:09.532Z,95774.31
2023-02-26T00:07:11.146Z,95762.75
2023-02-26T00:08:12.711Z,95766.56
2023-02-26T00:09:14.292Z,95770.34
2023-02-26T00:10:16.690Z,95756.53
2023-02-26T00:11:18.531Z,95761.53
2023-02-26T00:12:20.448Z,95748.44
2023-02-26T00:13:22.399Z,95750.38
2023-02-26T00:14:24.767Z,95748.47
2023-02-26T00:15:26.847Z,95745.41
2023-02-26T00:16:33.500Z,95745.81
2023-02-26T00:17:49.124Z,95746.59
2023-02-26T00:18:50.985Z,95740.03
2023-02-26T00:19:52.789Z,95738.13
2023-02-26T00:20:55.322Z,95729.63
2023-02-26T00:21:57.130Z,95732.31
2023-02-26T00:22:59.007Z,95733.50
2023-02-26T00:24:02.162Z,95737.34
2023-02-26T00:25:04.091Z,95735.06
2023-02-26T00:26:05.639Z,95739.66
2023-02-26T00:27:07.708Z,95741.94
2023-02-26T00:28:09.698Z,95737.31
2023-02-26T00:29:11.497Z,95741.16
2023-02-26T00:30:13.662Z,95734.22
2023-02-26T00:31:16.888Z,95730.03
2023-02-26T00:32:18.899Z,95746.19
2023-02-26T00:33:20.880Z,95737.72
2023-02-26T00:34:22.833Z,95731.94
2023-02-26T00:35:24.727Z,95737.72
2023-02-26T00:36:41.493Z,95741.56
2023-02-26T00:37:56.054Z,95732.31
2023-02-26T00:39:05.110Z,95732.72
2023-02-26T00:40:21.796Z,95732.72
2023-02-26T00:41:23.674Z,95729.63
2023-02-26T00:42:26.001Z,95730.03
2023-02-26T00:43:27.868Z,95734.22
2023-02-26T00:44:29.768Z,95728.47
2023-02-26T00:45:32.076Z,95726.50
2023-02-26T00:46:55.949Z,95726.91
2023-02-26T00:48:13.283Z,95719.22
2023-02-26T00:49:18.003Z,95725.34
2023-02-26T00:50:25.242Z,95710.34
2023-02-26T00:51:40.955Z,95722.25
2023-02-26T00:52:47.291Z,95730.38
2023-02-26T00:54:09.506Z,95738.47
2023-02-26T00:55:11.199Z,95735.78
2023-02-26T00:56:14.144Z,95728.13
2023-02-26T00:57:15.734Z,95725.81
2023-02-26T00:58:17.303Z,95727.72
2023-02-26T00:59:20.073Z,95722.72
2023-02-26T01:00:22.186Z,95720.78
2023-02-26T01:01:23.880Z,95737.31
2023-02-26T01:02:25.798Z,95730.81
2023-02-26T01:03:27.597Z,95728.13
2023-02-26T01:04:29.416Z,95718.88
2023-02-26T01:05:31.445Z,95725.81
2023-02-26T01:06:34.891Z,95729.63
2023-02-26T01:07:47.241Z,95725.81
2023-02-26T01:09:11.021Z,95722.75
2023-02-26T01:10:14.536Z,95724.66
2023-02-26T01:11:16.420Z,95718.16
2023-02-26T01:12:18.168Z,95709.28
2023-02-26T01:13:20.119Z,95705.84
2023-02-26T01:14:23.175Z,95703.56
2023-02-26T01:15:25.601Z,95699.69
2023-02-26T01:16:30.126Z,95704.69
2023-02-26T01:17:39.738Z,95700.50
2023-02-26T01:18:46.377Z,95703.19
2023-02-26T01:20:01.015Z,95697.41
2023-02-26T01:21:14.785Z,95698.19
2023-02-26T01:22:22.278Z,95706.69
2023-02-26T01:23:27.004Z,95686.69
2023-02-26T01:24:31.062Z,95697.47
2023-02-26T01:25:59.987Z,95689.78
2023-02-26T01:27:01.690Z,95696.28
2023-02-26T01:28:03.423Z,95684.38
2023-02-26T01:29:05.151Z,95683.53
2023-02-26T01:30:08.059Z,95687.41
2023-02-26T01:31:27.048Z,95689.69
2023-02-26T01:32:42.417Z,95678.13
2023-02-26T01:33:55.866Z,95696.97
2023-02-26T01:35:03.239Z,95692.31
2023-02-26T01:36:12.698Z,95692.66
2023-02-26T01:37:19.840Z,95691.50
2023-02-26T01:38:44.030Z,95681.88
2023-02-26T01:40:02.625Z,95675.34
2023-02-26T01:41:25.497Z,95670.00
2023-02-26T01:42:35.422Z,95667.31
2023-02-26T01:43:51.268Z,95666.94
2023-02-26T01:45:11.074Z,95660.38
2023-02-26T01:46:18.640Z,95659.25
2023-02-26T01:47:22.891Z,95654.66
2023-02-26T01:48:53.020Z,95658.19
2023-02-26T01:49:55.727Z,95649.69
2023-02-26T01:50:57.396Z,95661.22
2023-02-26T01:52:00.929Z,95650.81
2023-02-26T01:53:24.747Z,95661.22
2023-02-26T01:54:32.341Z,95646.63
2023-02-26T01:55:34.104Z,95648.97
2023-02-26T01:56:36.467Z,95652.03
2023-02-26T01:57:38.062Z,95663.56
2023-02-26T01:58:40.129Z,95662.78
2023-02-26T01:59:45.380Z,95664.34
2023-02-26T02:00:47.107Z,95662.41
2023-02-26T02:01:48.731Z,95647.06
2023-02-26T02:02:50.960Z,95656.63
2023-02-26T02:03:52.971Z,95651.25
2023-02-26T02:04:54.697Z,95648.97
2023-02-26T02:06:18.247Z,95653.16
2023-02-26T02:07:19.875Z,95655.84
2023-02-26T02:08:22.368Z,95651.63
2023-02-26T02:09:23.984Z,95655.47
2023-02-26T02:10:26.463Z,95654.28
2023-02-26T02:11:28.060Z,95664.28
2023-02-26T02:12:46.205Z,95664.25
2023-02-26T02:13:50.462Z,95652.31
2023-02-26T02:14:54.810Z,95664.25
2023-02-26T02:16:29.917Z,95656.53
2023-02-26T02:17:40.374Z,95658.81
2023-02-26T02:18:58.806Z,95658.75
2023-02-26T02:20:28.399Z,95647.63
2023-02-26T02:21:38.899Z,95656.03
2023-02-26T02:23:10.562Z,95651.00
2023-02-26T02:24:20.155Z,95662.47
2023-02-26T02:25:49.437Z,95670.91
2023-02-26T02:27:55.486Z,95668.56
2023-02-26T02:29:10.760Z,95667.00
2023-02-26T02:30:17.941Z,95680.06
2023-02-26T02:31:26.266Z,95659.34
2023-02-26T02:32:29.845Z,95676.28
2023-02-26T02:33:40.726Z,95677.84
2023-02-26T02:34:59.374Z,95680.16
2023-02-26T02:36:13.349Z,95674.03
2023-02-26T02:37:25.517Z,95679.47
2023-02-26T02:38:36.899Z,95677.91
2023-02-26T02:39:46.692Z,95680.56
2023-02-26T02:40:55.125Z,95669.41
2023-02-26T02:42:03.267Z,95670.16
2023-02-26T02:43:11.051Z,95681.66
2023-02-26T02:44:19.225Z,95674.34
2023-02-26T02:45:47.191Z,95661.63
2023-02-26T02:46:52.892Z,95666.63
2023-02-26T02:48:01.612Z,95670.09
2023-02-26T02:49:18.533Z,95665.88
2023-02-26T02:50:28.225Z,95675.47
2023-02-26T02:51:37.824Z,95671.63
2023-02-26T02:52:49.031Z,95664.69
2023-02-26T02:54:03.593Z,95672.00
2023-02-26T02:55:18.549Z,95670.84
2023-02-26T02:56:25.847Z,95668.56
2023-02-26T02:57:37.507Z,95675.47
2023-02-26T02:58:50.725Z,95679.69
2023-02-26T02:59:58.004Z,95673.13
2023-02-26T03:01:06.258Z,95670.03
2023-02-26T03:02:23.609Z,95669.66
2023-02-26T03:03:28.597Z,95671.56
2023-02-26T03:04:30.298Z,95656.94
2023-02-26T03:05:32.255Z,95663.84
2023-02-26T03:06:34.536Z,95660.03
2023-02-26T03:07:43.542Z,95663.47
2023-02-26T03:08:47.458Z,95657.69
2023-02-26T03:09:49.282Z,95652.31
2023-02-26T03:10:51.010Z,95656.94
2023-02-26T03:11:52.617Z,95660.00
2023-02-26T03:12:54.156Z,95647.72
2023-02-26T03:13:56.146Z,95653.88
2023-02-26T03:14:57.906Z,95644.66
2023-02-26T03:16:05.439Z,95640.06
2023-02-26T03:17:21.145Z,95643.91
2023-02-26T03:18:46.186Z,95640.84
2023-02-26T03:20:06.948Z,95653.91
2023-02-26T03:21:33.273Z,95633.16
2023-02-26T03:22:49.398Z,95638.88
2023-02-26T03:24:06.211Z,95649.22
2023-02-26T03:25:18.200Z,95640.75
2023-02-26T03:26:34.295Z,95626.94
2023-02-26T03:28:04.924Z,95655.00
2023-02-26T03:29:41.921Z,95645.38
2023-02-26T03:31:17.259Z,95645.72
2023-02-26T03:32:50.448Z,95631.16
2023-02-26T03:34:00.564Z,95632.28
2023-02-26T03:35:10.857Z,95629.22
2023-02-26T03:36:19.882Z,95634.59
2023-02-26T03:37:28.277Z,95644.94
2023-02-26T03:38:51.407Z,95631.50
2023-02-26T03:39:57.942Z,95649.16
2023-02-26T03:41:16.138Z,95636.88
2023-02-26T03:42:24.039Z,95622.66
2023-02-26T03:43:55.583Z,95632.25
2023-02-26T03:45:06.589Z,95630.69
2023-02-26T03:46:13.691Z,95628.41
2023-02-26T03:47:17.041Z,95641.84
2023-02-26T03:48:25.196Z,95638.00
2023-02-26T03:49:49.541Z,95633.03
2023-02-26T03:50:56.610Z,95623.44
2023-02-26T03:52:01.020Z,95624.56
2023-02-26T03:53:06.441Z,95626.13
2023-02-26T03:54:18.131Z,95635.31
2023-02-26T03:55:25.191Z,95631.47
2023-02-26T03:56:37.088Z,95626.06
2023-02-26T03:57:39.567Z,95633.31
2023-02-26T03:58:41.547Z,95610.69
2023-02-26T03:59:43.427Z,95630.97
2023-02-26T04:00:50.359Z,95627.91
2023-02-26T04:01:55.599Z,95631.72
2023-02-26T04:03:02.750Z,95621.78
2023-02-26T04:04:11.541Z,95624.03
2023-02-26T04:05:19.021Z,95618.66
2023-02-26T04:06:22.798Z,95627.56
2023-02-26T04:07:25.136Z,95629.84
2023-02-26T04:08:29.650Z,95640.59
2023-02-26T04:09:31.279Z,95636.00
2023-02-26T04:10:42.086Z,95626.38
2023-02-26T04:11:44.003Z,95636.00
2023-02-26T04:12:45.802Z,95636.78
2023-02-26T04:13:47.610Z,95630.63
2023-02-26T04:14:50.211Z,95623.69
2023-02-26T04:15:52.206Z,95637.91
2023-02-26T04:16:54.030Z,95619.88
2023-02-26T04:17:55.651Z,95631.75
2023-02-26T04:18:57.301Z,95632.16
2023-02-26T04:19:58.924Z,95633.66
2023-02-26T04:21:00.617Z,95622.19
2023-02-26T04:22:02.191Z,95633.66
2023-02-26T04:23:03.920Z,95632.53
2023-02-26T04:24:05.707Z,95632.94
2023-02-26T04:25:07.605Z,95623.69
2023-02-26T04:26:09.184Z,95623.69
2023-02-26T04:27:10.705Z,95632.09
2023-02-26T04:28:13.168Z,95628.69
2023-02-26T04:29:14.872Z,95622.19
2023-02-26T04:30:16.808Z,95620.66
2023-02-26T04:31:18.549Z,95626.81
2023-02-26T04:32:20.283Z,95622.22
2023-02-26T04:33:23.228Z,95627.59
2023-02-26T04:34:24.824Z,95616.84
2023-02-26T04:35:26.398Z,95614.56
2023-02-26T04:36:28.120Z,95612.66
2023-02-26T04:37:29.774Z,95617.66
2023-02-26T04:38:31.403Z,95612.28
2023-02-26T04:39:32.999Z,95615.38
2023-02-26T04:40:34.592Z,95616.91
2023-02-26T04:41:36.882Z,95614.63
2023-02-26T04:42:38.422Z,95606.56
2023-02-26T04:43:39.942Z,95609.63
2023-02-26T04:44:41.572Z,95600.41
2023-02-26T04:45:48.809Z,95611.53
2023-02-26T04:46:50.518Z,95607.72
2023-02-26T04:47:52.154Z,95616.91
2023-02-26T04:48:53.798Z,95611.13
2023-02-26T04:49:55.456Z,95609.22
2023-02-26T04:50:57.014Z,95611.47
2023-02-26T04:51:59.194Z,95606.88
2023-02-26T04:53:00.788Z,95623.78
2023-02-26T04:54:02.335Z,95622.22
2023-02-26T04:55:04.401Z,95624.53
2023-02-26T04:56:06.918Z,95622.97
2023-02-26T04:57:08.494Z,95622.97
2023-02-26T04:58:11.490Z,95627.94
2023-02-26T04:59:13.539Z,95629.84
2023-02-26T05:00:15.982Z,95630.63
2023-02-26T05:01:17.637Z,95637.53
2023-02-26T05:02:19.223Z,95632.94
2023-02-26T05:03:21.424Z,95625.22
2023-02-26T05:04:23.061Z,95621.75
2023-02-26T05:05:24.793Z,95640.56
2023-02-26T05:06:26.540Z,95633.66
2023-02-26T05:07:28.347Z,95628.69
2023-02-26T05:08:30.214Z,95634.06
2023-02-26T05:09:31.753Z,95629.41
2023-02-26T05:10:33.294Z,95609.09
2023-02-26T05:11:34.810Z,95635.13
2023-02-26T05:12:36.517Z,95619.00
2023-02-26T05:13:38.844Z,95622.09
2023-02-26T05:14:40.377Z,95625.22
2023-02-26T05:15:42.038Z,95618.28
2023-02-26T05:16:43.662Z,95601.03
2023-02-26T05:17:45.212Z,95611.38
2023-02-26T05:18:46.745Z,95613.72
2023-02-26T05:19:48.461Z,95620.63
2023-02-26T05:20:56.763Z,95625.25
2023-02-26T05:21:58.305Z,95619.50
2023-02-26T05:22:59.863Z,95624.53
2023-02-26T05:24:02.356Z,95615.31
2023-02-26T05:25:05.048Z,95616.06
2023-02-26T05:26:06.588Z,95616.50
2023-02-26T05:27:08.210Z,95619.53
2023-02-26T05:28:09.770Z,95616.06
2023-02-26T05:29:11.296Z,95620.69
2023-02-26T05:30:15.068Z,95614.53
2023-02-26T05:31:16.787Z,95604.19
2023-02-26T05:32:18.434Z,95609.22
2023-02-26T05:33:20.038Z,95613.03
2023-02-26T05:34:21.715Z,95603.84
2023-02-26T05:35:23.318Z,95600.38
2023-02-26T05:36:25.530Z,95613.03
2023-02-26T05:37:27.260Z,95606.13
2023-02-26T05:38:28.785Z,95602.34
2023-02-26T05:39:30.330Z,95605.06
2023-02-26T05:40:31.906Z,95611.59
2023-02-26T05:41:33.542Z,95609.31
2023-02-26T05:42:35.121Z,95602.03
2023-02-26T05:43:36.800Z,95608.16
2023-02-26T05:44:38.392Z,95609.31
2023-02-26T05:45:39.936Z,95608.56
2023-02-26T05:46:41.493Z,95593.25
2023-02-26T05:47:43.185Z,95596.31
2023-02-26T05:48:45.890Z,95602.44
2023-02-26T05:49:47.533Z,95602.47
2023-02-26T05:50:49.873Z,95597.88
2023-02-26T05:51:51.444Z,95607.88
2023-02-26T05:52:53.521Z,95617.88
2023-02-26T05:53:55.537Z,95613.31
2023-02-26T05:54:57.078Z,95612.16
2023-02-26T05:55:59.199Z,95621.00
2023-02-26T05:57:00.806Z,95610.66
2023-02-26T05:58:02.388Z,95612.53
2023-02-26T05:59:04.039Z,95617.16
2023-02-26T06:00:07.481Z,95611.38
2023-02-26T06:01:09.079Z,95617.53
2023-02-26T06:02:10.715Z,95609.47
2023-02-26T06:03:12.657Z,95617.53
2023-02-26T06:04:14.220Z,95610.25
2023-02-26T06:05:15.852Z,95619.47
2023-02-26T06:06:18.536Z,95616.81
2023-02-26T06:07:20.142Z,95603.75
2023-02-26T06:08:21.799Z,95614.16
2023-02-26T06:09:23.410Z,95621.81
2023-02-26T06:10:24.976Z,95604.16
2023-02-26T06:11:26.613Z,95599.94
2023-02-26T06:12:28.178Z,95610.31
2023-02-26T06:13:29.717Z,95607.22
2023-02-26T06:14:31.300Z,95591.88
2023-02-26T06:15:33.003Z,95590.31
2023-02-26T06:16:35.941Z,95605.72
2023-02-26T06:17:40.569Z,95599.22
2023-02-26T06:18:42.383Z,95581.19
2023-02-26T06:19:44.918Z,95601.19
2023-02-26T06:20:46.451Z,95588.94
2023-02-26T06:21:48.169Z,95592.00
2023-02-26T06:22:49.732Z,95580.50
2023-02-26T06:23:51.284Z,95590.50
2023-02-26T06:24:55.073Z,95580.53
2023-02-26T06:25:56.684Z,95567.16
2023-02-26T06:26:58.360Z,95578.69
2023-02-26T06:27:59.910Z,95582.19
2023-02-26T06:29:02.314Z,95579.13
2023-02-26T06:30:04.775Z,95568.78
2023-02-26T06:31:06.623Z,95574.94
2023-02-26T06:32:08.728Z,95558.41
2023-02-26T06:33:10.453Z,95565.72
2023-02-26T06:34:12.045Z,95576.13
2023-02-26T06:35:13.675Z,95570.00
2023-02-26T06:36:15.240Z,95555.75
2023-02-26T06:37:16.942Z,95581.53
2023-02-26T06:38:18.671Z,95566.91
2023-02-26T06:39:20.320Z,95578.06
2023-02-26T06:40:22.031Z,95589.25
2023-02-26T06:41:23.575Z,95586.91
2023-02-26T06:42:25.298Z,95567.69
2023-02-26T06:43:26.985Z,95557.69
2023-02-26T06:44:28.537Z,95573.09
2023-02-26T06:45:30.140Z,95581.56
2023-02-26T06:46:31.688Z,95591.94
2023-02-26T06:47:33.283Z,95583.47
2023-02-26T06:48:34.853Z,95585.03
2023-02-26T06:49:36.397Z,95600.78
2023-02-26T06:50:38.018Z,95596.91
2023-02-26T06:51:39.582Z,95589.22
2023-02-26T06:52:43.594Z,95589.59
2023-02-26T06:53:45.142Z,95596.91
2023-02-26T06:54:46.679Z,95595.34
2023-02-26T06:55:51.504Z,95577.25
2023-02-26T06:56:53.210Z,95609.19
2023-02-26T06:57:55.991Z,95599.16
2023-02-26T06:58:57.601Z,95596.09
2023-02-26T06:59:59.324Z,95593.78
2023-02-26T07:01:00.975Z,95581.84
2023-02-26T07:02:02.599Z,95587.59
2023-02-26T07:03:05.264Z,95594.16
2023-02-26T07:04:06.922Z,95600.69
2023-02-26T07:05:08.925Z,95615.28
2023-02-26T07:06:26.488Z,95598.75
2023-02-26T07:07:29.221Z,95597.63
2023-02-26T07:08:30.785Z,95600.69
2023-02-26T07:09:32.375Z,95614.50
2023-02-26T07:10:35.361Z,95629.16
2023-02-26T07:11:36.915Z,95622.25
2023-02-26T07:12:38.639Z,95644.56
2023-02-26T07:13:40.326Z,95627.69
2023-02-26T07:14:43.158Z,95664.22
2023-02-26T07:15:46.276Z,95649.22
2023-02-26T07:16:47.999Z,95652.28
2023-02-26T07:17:49.612Z,95646.16
2023-02-26T07:18:51.185Z,95640.38
2023-02-26T07:19:53.556Z,95626.91
2023-02-26T07:20:55.136Z,95639.22
2023-02-26T07:21:56.944Z,95641.94
2023-02-26T07:22:58.527Z,95625.81
2023-02-26T07:24:00.315Z,95629.28
2023-02-26T07:25:01.900Z,95620.81
2023-02-26T07:26:03.506Z,95640.44
2023-02-26T07:27:05.044Z,95634.69
2023-02-26T07:28:06.710Z,95627.00
2023-02-26T07:29:08.582Z,95625.84
2023-02-26T07:30:11.230Z,95642.78
2023-02-26T07:31:13.071Z,95637.00
2023-02-26T07:32:14.715Z,95649.34
2023-02-26T07:33:16.423Z,95640.88
2023-02-26T07:34:17.954Z,95642.81
2023-02-26T07:35:19.529Z,95633.22
2023-02-26T07:36:21.088Z,95631.69
2023-02-26T07:37:22.860Z,95638.63
2023-02-26T07:38:24.407Z,95635.91
2023-02-26T07:39:27.364Z,95634.75
2023-02-26T07:40:29.060Z,95630.13
2023-02-26T07:41:30.580Z,95628.97
2023-02-26T07:42:32.158Z,95622.06
2023-02-26T07:43:33.785Z,95629.00
2023-02-26T07:44:35.371Z,95630.91
2023-02-26T07:45:37.095Z,95624.75
2023-02-26T07:46:38.736Z,95632.06
2023-02-26T07:47:40.350Z,95622.06
2023-02-26T07:48:41.912Z,95617.81
2023-02-26T07:49:43.736Z,95625.50
2023-02-26T07:50:45.704Z,95624.75
2023-02-26T07:51:48.280Z,95649.41
2023-02-26T07:52:49.837Z,95626.66
2023-02-26T07:53:51.421Z,95613.22
2023-02-26T07:54:52.993Z,95631.28
2023-02-26T07:55:54.588Z,95635.91
2023-02-26T07:56:56.206Z,95619.34
2023-02-26T07:57:57.786Z,95618.19
2023-02-26T07:58:59.333Z,95640.16
2023-02-26T08:00:00.892Z,95645.16
2023-02-26T08:01:02.528Z,95634.00
2023-02-26T08:02:04.496Z,95650.56
2023-02-26T08:03:06.045Z,95641.69
2023-02-26T08:04:07.706Z,95636.31
2023-02-26T08:05:09.529Z,95629.81
2023-02-26T08:06:11.121Z,95641.75
2023-02-26T08:07:12.714Z,95652.91
2023-02-26T08:08:14.534Z,95658.69
2023-02-26T08:09:16.164Z,95656.38
2023-02-26T08:10:17.854Z,95644.78
2023-02-26T08:11:19.389Z,95642.50
2023-02-26T08:12:20.961Z,95652.91
2023-02-26T08:13:22.525Z,95653.28
2023-02-26T08:14:24.101Z,95659.44
2023-02-26T08:15:25.739Z,95663.31
2023-02-26T08:16:27.641Z,95649.03
2023-02-26T08:17:30.051Z,95642.50
2023-02-26T08:18:31.678Z,95632.47
2023-02-26T08:19:33.236Z,95643.66
2023-02-26T08:20:35.278Z,95651.75
2023-02-26T08:21:37.131Z,95654.81
2023-02-26T08:22:38.735Z,95654.06
2023-02-26T08:23:40.436Z,95647.50
2023-02-26T08:24:42.192Z,95655.59
2023-02-26T08:25:43.730Z,95661.78
2023-02-26T08:26:46.260Z,95639.78
2023-02-26T08:27:47.820Z,95653.25
2023-02-26T08:28:49.584Z,95644.41
2023-02-26T08:29:51.210Z,95665.22
2023-02-26T08:30:53.907Z,95658.66
2023-02-26T08:31:55.642Z,95644.41
2023-02-26T08:32:57.362Z,95667.91
2023-02-26T08:33:58.936Z,95657.91
2023-02-26T08:35:00.498Z,95646.34
2023-02-26T08:36:02.080Z,95651.69
2023-02-26T08:37:03.629Z,95658.28
2023-02-26T08:38:08.148Z,95657.09
2023-02-26T08:39:09.722Z,95641.69
2023-02-26T08:40:14.791Z,95650.94
2023-02-26T08:41:17.720Z,95652.50
2023-02-26T08:42:20.558Z,95650.19
2023-02-26T08:43:22.309Z,95654.81
2023-02-26T08:44:23.815Z,95651.75
2023-02-26T08:45:25.368Z,95648.66
2023-02-26T08:46:27.280Z,95647.50
2023-02-26T08:47:29.374Z,95643.28
2023-02-26T08:48:31.377Z,95646.31
2023-02-26T08:49:33.096Z,95641.72
2023-02-26T08:50:34.613Z,95658.66
2023-02-26T08:51:36.154Z,95650.56
2023-02-26T08:52:38.760Z,95644.78
2023-02-26T08:53:40.448Z,95650.56
2023-02-26T08:54:41.980Z,95659.81
2023-02-26T08:55:44.958Z,95660.97
2023-02-26T08:56:46.522Z,95666.75
2023-02-26T08:57:48.084Z,95672.53
2023-02-26T08:58:49.607Z,95667.88
2023-02-26T08:59:51.171Z,95670.19
2023-02-26T09:00:53.270Z,95666.34
2023-02-26T09:01:54.864Z,95658.63
2023-02-26T09:02:56.576Z,95663.25
2023-02-26T09:03:58.190Z,95672.09
2023-02-26T09:04:59.737Z,95661.72
2023-02-26T09:06:01.727Z,95663.25
2023-02-26T09:07:03.292Z,95657.47
2023-02-26T09:08:08.139Z,95667.13
2023-02-26T09:09:10.120Z,95663.28
2023-02-26T09:10:12.768Z,95669.44
2023-02-26T09:11:14.355Z,95669.44
2023-02-26T09:12:16.882Z,95669.41
2023-02-26T09:13:18.560Z,95668.63
2023-02-26T09:14:20.583Z,95667.09
2023-02-26T09:15:22.130Z,95670.19
2023-02-26T09:16:24.159Z,95664.00
2023-02-26T09:17:26.189Z,95656.28
2023-02-26T09:18:27.845Z,95675.53
2023-02-26T09:19:29.384Z,95667.06
2023-02-26T09:20:30.907Z,95654.72
2023-02-26T09:21:32.585Z,95645.47
2023-02-26T09:22:34.134Z,95643.16
2023-02-26T09:23:35.828Z,95655.09
2023-02-26T09:24:37.403Z,95648.53
2023-02-26T09:25:39.746Z,95658.91
2023-02-26T09:26:41.304Z,95657.34
2023-02-26T09:27:42.901Z,95651.16
2023-02-26T09:28:44.465Z,95649.25
2023-02-26T09:29:46.036Z,95653.09
2023-02-26T09:30:48.107Z,95642.28
2023-02-26T09:31:49.771Z,95648.47
2023-02-26T09:32:51.481Z,95640.78
2023-02-26T09:33:53.066Z,95639.97
2023-02-26T09:34:54.646Z,95647.31
2023-02-26T09:35:56.294Z,95632.63
2023-02-26T09:36:57.853Z,95638.44
2023-02-26T09:37:59.488Z,95633.03
2023-02-26T09:39:01.084Z,95633.03
2023-02-26T09:40:03.723Z,95626.47
2023-02-26T09:41:09.822Z,95636.09
2023-02-26T09:42:36.028Z,95622.59
2023-02-26T09:43:49.653Z,95614.13
2023-02-26T09:44:53.797Z,95602.94
2023-02-26T09:45:59.993Z,95619.16
2023-02-26T09:47:25.263Z,95621.88
2023-02-26T09:48:29.103Z,95629.25
2023-02-26T09:49:49.317Z,95651.63
2023-02-26T09:50:57.823Z,95648.19
2023-02-26T09:52:17.754Z,95635.06
2023-02-26T09:53:28.123Z,95639.31
2023-02-26T09:54:36.671Z,95618.50
2023-02-26T09:55:44.973Z,95628.53
2023-02-26T09:56:47.096Z,95645.13
2023-02-26T09:57:52.053Z,95650.88
2023-02-26T09:58:55.521Z,95637.38
2023-02-26T09:59:58.283Z,95651.66
2023-02-26T10:01:19.164Z,95633.88
2023-02-26T10:02:32.612Z,95634.66
2023-02-26T10:04:02.118Z,95636.97
2023-02-26T10:06:08.494Z,95640.47
2023-02-26T10:07:21.347Z,95636.97
2023-02-26T10:08:29.755Z,95626.53
2023-02-26T10:10:02.052Z,95623.06
2023-02-26T10:11:26.559Z,95624.63
2023-02-26T10:12:31.927Z,95619.97
2023-02-26T10:13:56.718Z,95622.22
2023-02-26T10:15:14.567Z,95604.47
2023-02-26T10:16:23.400Z,95614.50
2023-02-26T10:17:40.984Z,95599.88
2023-02-26T10:18:55.429Z,95609.13
2023-02-26T10:20:04.268Z,95600.69
2023-02-26T10:21:17.728Z,95598.75
2023-02-26T10:22:22.280Z,95602.97
2023-02-26T10:23:46.176Z,95585.94
2023-02-26T10:24:55.572Z,95600.25
2023-02-26T10:26:19.863Z,95604.09
2023-02-26T10:27:37.950Z,95578.28
2023-02-26T10:29:10.993Z,95582.06
2023-02-26T10:30:41.357Z,95596.00
2023-02-26T10:32:03.532Z,95590.66
2023-02-26T10:33:25.283Z,95596.81
2023-02-26T10:34:52.652Z,95590.66
2023-02-26T10:35:59.370Z,95579.00
2023-02-26T10:37:36.404Z,95557.41
2023-02-26T10:38:38.130Z,95565.88
2023-02-26T10:39:48.384Z,95578.22
2023-02-26T10:40:53.654Z,95567.41
2023-02-26T10:41:59.209Z,95561.63
2023-02-26T10:43:27.485Z,95553.16
2023-02-26T10:44:55.130Z,95546.63
2023-02-26T10:45:57.415Z,95550.84
2023-02-26T10:47:30.895Z,95556.22
2023-02-26T10:48:41.215Z,95540.31
2023-02-26T10:50:09.769Z,95554.25
2023-02-26T10:51:18.033Z,95540.78
2023-02-26T10:52:23.646Z,95545.03
2023-02-26T10:53:27.844Z,95544.25
2023-02-26T10:54:43.036Z,95546.19
2023-02-26T10:56:13.829Z,95536.50
2023-02-26T10:57:38.103Z,95553.50
2023-02-26T10:58:40.150Z,95551.19
2023-02-26T10:59:41.727Z,95560.09
2023-02-26T11:00:48.984Z,95556.22
2023-02-26T11:01:52.618Z,95556.63
2023-02-26T11:02:56.339Z,95550.47
2023-02-26T11:04:05.797Z,95579.03
2023-02-26T11:05:18.126Z,95552.84
2023-02-26T11:06:30.107Z,95565.94
2023-02-26T11:07:33.167Z,95561.34
2023-02-26T11:08:40.865Z,95569.06
2023-02-26T11:09:45.917Z,95569.81
2023-02-26T11:10:55.302Z,95575.25
2023-02-26T11:12:05.438Z,95572.50
2023-02-26T11:13:07.168Z,95582.53
2023-02-26T11:14:10.119Z,95577.53
2023-02-26T11:15:22.179Z,95581.41
2023-02-26T11:16:23.798Z,95567.53
2023-02-26T11:17:32.338Z,95586.38
2023-02-26T11:18:58.609Z,95591.38
2023-02-26T11:20:05.372Z,95577.09
2023-02-26T11:21:08.878Z,95584.38
2023-02-26T11:22:14.338Z,95572.00
2023-02-26T11:23:22.494Z,95595.97
2023-02-26T11:24:47.030Z,95598.25
2023-02-26T11:25:55.542Z,95590.50
2023-02-26T11:27:04.114Z,95598.22
2023-02-26T11:28:19.067Z,95605.19
2023-02-26T11:29:23.129Z,95595.19
2023-02-26T11:30:27.585Z,95592.47
2023-02-26T11:31:30.234Z,95594.72
2023-02-26T11:32:37.580Z,95582.06
2023-02-26T11:33:41.038Z,95590.50
2023-02-26T11:34:48.753Z,95580.13
2023-02-26T11:35:51.289Z,95609.84
2023-02-26T11:36:57.042Z,95615.25
2023-02-26T11:38:02.541Z,95609.81
2023-02-26T11:39:08.654Z,95600.56
2023-02-26T11:40:22.607Z,95602.88
2023-02-26T11:41:26.552Z,95597.94
2023-02-26T11:42:28.402Z,95611.38
2023-02-26T11:43:44.479Z,95614.88
2023-02-26T11:44:48.267Z,95621.44
2023-02-26T11:46:00.863Z,95617.59
2023-02-26T11:47:07.237Z,95611.41
2023-02-26T11:48:19.147Z,95625.66
2023-02-26T11:49:23.867Z,95619.91
2023-02-26T11:50:26.067Z,95636.09
2023-02-26T11:51:29.673Z,95604.47
2023-02-26T11:52:40.089Z,95626.84
2023-02-26T11:54:01.313Z,95629.94
2023-02-26T11:55:17.628Z,95636.84
2023-02-26T11:56:30.238Z,95628.38
2023-02-26T11:57:33.364Z,95626.47
2023-02-26T11:58:38.143Z,95628.38
2023-02-26T11:59:40.995Z,95622.59
2023-02-26T12:00:42.634Z,95611.38
2023-02-26T12:01:44.348Z,95627.56
2023-02-26T12:02:46.011Z,95621.38
2023-02-26T12:03:51.099Z,95619.47
2023-02-26T12:04:56.861Z,95629.13
2023-02-26T12:06:01.339Z,95629.09
2023-02-26T12:07:03.034Z,95630.66
2023-02-26T12:08:13.249Z,95626.06
2023-02-26T12:09:15.158Z,95624.50
2023-02-26T12:10:23.282Z,95627.19
2023-02-26T12:11:44.069Z,95626.03
2023-02-26T12:12:51.940Z,95640.31
2023-02-26T12:14:08.718Z,95626.75
2023-02-26T12:15:11.279Z,95631.38
2023-02-26T12:16:24.005Z,95634.81
2023-02-26T12:17:47.123Z,95627.88
2023-02-26T12:18:59.457Z,95634.78
2023-02-26T12:20:47.827Z,95628.97
2023-02-26T12:21:58.275Z,95620.53
2023-02-26T12:23:20.856Z,95615.16
2023-02-26T12:24:40.341Z,95609.00
2023-02-26T12:25:47.836Z,95627.06
2023-02-26T12:26:59.538Z,95616.28
2023-02-26T12:28:25.362Z,95630.19
2023-02-26T12:30:08.998Z,95614.31
2023-02-26T12:31:42.260Z,95621.28
2023-02-26T12:33:08.758Z,95619.72
2023-02-26T12:34:10.270Z,95629.72
2023-02-26T12:35:34.166Z,95606.84
2023-02-26T12:36:49.059Z,95624.69
2023-02-26T12:38:20.716Z,95616.63
2023-02-26T12:39:45.464Z,95630.13
2023-02-26T12:40:49.750Z,95621.19
2023-02-26T12:42:09.964Z,95642.81
2023-02-26T12:43:46.925Z,95625.84
2023-02-26T12:44:58.745Z,95645.97
2023-02-26T12:46:15.799Z,95628.94
2023-02-26T12:47:54.975Z,95622.72
2023-02-26T12:49:32.852Z,95620.50
2023-02-26T12:50:39.942Z,95634.41
2023-02-26T12:52:06.035Z,95622.78
2023-02-26T12:53:39.591Z,95631.34
2023-02-26T12:55:06.267Z,95618.25
2023-02-26T12:56:27.411Z,95625.97
2023-02-26T12:58:05.863Z,95636.00
2023-02-26T12:59:26.045Z,95636.81
2023-02-26T13:00:39.569Z,95631.44
2023-02-26T13:02:18.518Z,95622.53
2023-02-26T13:03:57.360Z,95623.31
2023-02-26T13:05:12.376Z,95633.38
2023-02-26T13:06:33.641Z,95626.00
2023-02-26T13:08:00.629Z,95633.34